M I D A S
Marine Information and Data Acquisition System
Tripno 1647 of the Zeeleeuw from 2009-02-26 08:03:46 to 2009-02-26 16:14:52
Back to CruiseResearch ActivitiesStationsMapUnderway DataData graphs

EquipmentUnitsComment
TimeDGPSUTC
LatitudeDGPSDM.mWGS84
LongitudeDGPSDM.mWGS84
HeadingGyrodeg 
SOGDGPSknotsSpeed over ground
COGDGPSdegCourse over ground
DepthEcho soundermeters200 kHz
Missing or incorrect values are displayed as -999
Navigation data collected by the RV Zeeleeuw from 2009-02-26 08:00:54 to 2009-02-26 16:33:56
Time Latitude Longitude Heading SOG COG Depth
2009-02-26 08:01:59 51°13.661 2°55.96 121.1 -999 238 -999
2009-02-26 08:02:59 51°13.66 2°55.959 116.4 -999 198 -999
2009-02-26 08:03:59 51°13.666 2°55.936 114.9 2.7 296 -999
2009-02-26 08:04:59 51°13.687 2°55.851 101.6 3.9 282 -999
2009-02-26 08:05:59 51°13.694 2°55.763 85.3 2.5 270 -999
2009-02-26 08:06:59 51°13.702 2°55.754 43.9 1.4 29 10.1
2009-02-26 08:07:59 51°13.707 2°55.757 8.6 1.1 191 9.9
2009-02-26 08:08:59 51°13.707 2°55.749 340.5 1.9 335 -999
2009-02-26 08:09:59 51°13.786 2°55.675 331.6 7.5 330 8.7
2009-02-26 08:10:59 51°13.908 2°55.577 336.4 8.6 335 8.6
2009-02-26 08:11:59 51°14.039 2°55.478 336.1 8.7 335 8.5
2009-02-26 08:12:59 51°14.168 2°55.374 331.6 8.6 330 -999
2009-02-26 08:13:59 51°14.279 2°55.228 314.9 8.8 312 9.1
2009-02-26 08:14:59 51°14.374 2°55.048 310.7 9 310 9.1
2009-02-26 08:15:59 51°14.495 2°54.883 329.3 10.1 321 9.2
2009-02-26 08:16:59 51°14.634 2°54.707 328.9 11.3 321 8.5
2009-02-26 08:17:59 51°14.788 2°54.518 329.5 11.7 324 8.4
2009-02-26 08:18:59 51°14.943 2°54.333 328.3 11.5 321 5.5
2009-02-26 08:19:59 51°15.096 2°54.157 331.8 11.5 325 7.4
2009-02-26 08:20:59 51°15.255 2°53.985 332 11.6 326 7.8
2009-02-26 08:21:59 51°15.417 2°53.816 334.7 11.6 328 8.7
2009-02-26 08:22:59 51°15.583 2°53.657 337.3 11.7 332 9.9
2009-02-26 08:23:59 51°15.753 2°53.501 336.8 11.8 330 10.7
2009-02-26 08:24:59 51°15.918 2°53.332 334.5 11.8 327 10.9
2009-02-26 08:25:59 51°16.084 2°53.171 336.8 11.6 329 10.8
2009-02-26 08:26:59 51°16.25 2°53.011 335.4 11.7 328 10.9
2009-02-26 08:27:59 51°16.421 2°52.872 342.8 11.5 339 10.9
2009-02-26 08:28:59 51°16.601 2°52.772 345.6 11.5 341 10.6
2009-02-26 08:29:59 51°16.779 2°52.686 349.2 11 345 8.7
2009-02-26 08:30:59 51°16.955 2°52.605 347.7 11 343 9
2009-02-26 08:31:59 51°17.129 2°52.528 351 10.8 351 8.7
2009-02-26 08:32:59 51°17.306 2°52.491 358 10.5 1 9.1
2009-02-26 08:33:59 51°17.461 2°52.606 34 10.4 40 9.4
2009-02-26 08:34:59 51°17.593 2°52.786 41.9 10.5 40 9.3
2009-02-26 08:35:59 51°17.719 2°52.978 42.9 10.4 43 9.2
2009-02-26 08:36:59 51°17.84 2°53.173 44.9 10.3 47 9.3
2009-02-26 08:37:59 51°17.964 2°53.363 44 10.3 43 9.3
2009-02-26 08:38:59 51°18.088 2°53.55 44.5 10.2 42 9.5
2009-02-26 08:39:59 51°18.209 2°53.741 48.4 10.3 42 9.7
2009-02-26 08:40:59 51°18.304 2°53.97 57.4 10.4 58 9.6
2009-02-26 08:41:59 51°18.385 2°54.218 60.5 10.7 67 9.6
2009-02-26 08:42:59 51°18.472 2°54.46 59.5 10.6 61 9.7
2009-02-26 08:43:59 51°18.559 2°54.698 59.1 10.5 61 9.7
2009-02-26 08:44:59 51°18.646 2°54.935 59.4 10.3 59 9.9
2009-02-26 08:45:59 51°18.734 2°55.172 58.5 10.4 64 9.7
2009-02-26 08:46:59 51°18.814 2°55.415 61.8 10.2 67 9.7
2009-02-26 08:47:59 51°18.889 2°55.658 61.8 10.1 66 9.7
2009-02-26 08:48:59 51°18.966 2°55.895 62.3 10 65 9.7
2009-02-26 08:49:59 51°19.045 2°56.128 61.9 10 59 9.9
2009-02-26 08:50:59 51°19.124 2°56.36 62.1 9.9 56 9.9
2009-02-26 08:51:59 51°19.206 2°56.592 62.3 9.9 56 9.8
2009-02-26 08:52:59 51°19.284 2°56.826 61.3 10.1 64 9.7
2009-02-26 08:53:59 51°19.365 2°57.059 62.4 10.1 61 9.7
2009-02-26 08:54:59 51°19.444 2°57.294 63.1 10.1 57 9.7
2009-02-26 08:55:59 51°19.524 2°57.529 60.9 10.1 56 9.5
2009-02-26 08:56:59 51°19.605 2°57.766 62.2 10.2 62 9.4
2009-02-26 08:57:59 51°19.688 2°58.001 60.3 10.1 58 9.3
2009-02-26 08:58:59 51°19.769 2°58.238 60.6 10.2 65 9.2
2009-02-26 08:59:59 51°19.852 2°58.474 62.4 10.2 59 9.5
2009-02-26 09:00:59 51°19.936 2°58.708 61.8 10.2 59 9.4
2009-02-26 09:01:59 51°20.02 2°58.943 58.5 10.1 66 9.2
2009-02-26 09:02:59 51°20.105 2°59.176 62 10.1 55 9.3
2009-02-26 09:03:59 51°20.188 2°59.413 60.6 10.2 62 9.3
2009-02-26 09:04:59 51°20.271 2°59.652 61 10.5 62 9.3
2009-02-26 09:05:59 51°20.355 2°59.898 61.8 10.6 62 9.4
2009-02-26 09:06:59 51°20.44 3°0.144 62 10.5 58 9.5
2009-02-26 09:07:59 51°20.524 3°0.387 61.3 10.5 60 9.7
2009-02-26 09:08:59 51°20.607 3°0.637 61.8 10.6 59 9.8
2009-02-26 09:09:59 51°20.694 3°0.882 62.6 10.6 59 9.7
2009-02-26 09:10:59 51°20.776 3°1.133 61.4 10.6 64 9.7
2009-02-26 09:11:59 51°20.862 3°1.382 62.7 10.7 59 9.9
2009-02-26 09:12:59 51°20.946 3°1.636 61.1 10.8 64 10.1
2009-02-26 09:13:59 51°21.035 3°1.885 60.1 10.7 60 10.3
2009-02-26 09:14:59 51°21.121 3°2.135 62.6 10.8 64 10.4
2009-02-26 09:15:59 51°21.2 3°2.39 70 10.7 65 10.4
2009-02-26 09:16:59 51°21.246 3°2.667 75.2 10.8 78 10.2
2009-02-26 09:17:59 51°21.291 3°2.944 75 10.9 74 10.3
2009-02-26 09:18:59 51°21.334 3°3.224 76.4 10.9 75 10.6
2009-02-26 09:19:59 51°21.38 3°3.503 74.4 10.8 71 10.5
2009-02-26 09:20:59 51°21.426 3°3.781 72.8 10.9 74 10.6
2009-02-26 09:21:59 51°21.475 3°4.059 72.5 10.8 72 10.7
2009-02-26 09:22:59 51°21.525 3°4.338 71.5 11 76 10.8
2009-02-26 09:23:59 51°21.57 3°4.618 75.2 10.9 76 10.8
2009-02-26 09:24:59 51°21.617 3°4.893 72.5 10.7 72 10.7
2009-02-26 09:25:59 51°21.664 3°5.169 72.3 10.7 76 10.7
2009-02-26 09:26:59 51°21.713 3°5.445 74.8 10.9 70 10.7
2009-02-26 09:27:59 51°21.764 3°5.72 73.6 10.8 74 10.7
2009-02-26 09:28:59 51°21.815 3°5.996 72.7 11 77 10.8
2009-02-26 09:29:59 51°21.863 3°6.274 75.5 10.8 71 11.1
2009-02-26 09:30:59 51°21.912 3°6.553 72.1 10.9 74 11.2
2009-02-26 09:31:59 51°21.968 3°6.826 72.8 10.9 71 11.5
2009-02-26 09:32:59 51°22.018 3°7.105 74.1 10.9 76 11.5
2009-02-26 09:33:59 51°22.067 3°7.387 73.2 11 77 11.5
2009-02-26 09:34:59 51°22.125 3°7.666 68 11.1 71 11.8
2009-02-26 09:35:59 51°22.192 3°7.942 69.1 11.3 69 11.8
2009-02-26 09:36:59 51°22.262 3°8.217 66.4 11.1 63 12
2009-02-26 09:37:59 51°22.339 3°8.486 64.5 10.6 67 12.2
2009-02-26 09:38:59 51°22.389 3°8.67 65.5 5.6 69 12.5
2009-02-26 09:39:59 51°22.417 3°8.779 62.5 3.5 68 12.7
2009-02-26 09:40:59 51°22.435 3°8.853 62.4 2.6 68 12.6
2009-02-26 09:41:59 51°22.42 3°8.929 122 3.7 142 12.7
2009-02-26 09:42:59 51°22.348 3°8.97 158.9 5.1 161 12.7
2009-02-26 09:43:59 51°22.275 3°9.052 140.6 6 149 12.5
2009-02-26 09:44:59 51°22.171 3°9.142 147.4 7.6 150 12.3
2009-02-26 09:45:59 51°22.07 3°9.242 142 5.8 146 12.4
2009-02-26 09:46:59 51°22.006 3°9.295 158.3 3.5 168 12.3
2009-02-26 09:47:59 51°21.949 3°9.294 189.1 3.5 193 12
2009-02-26 09:48:59 51°21.895 3°9.262 206.7 3.4 206 11.9
2009-02-26 09:49:59 51°21.846 3°9.208 227.2 3.6 223 11.4
2009-02-26 09:50:59 51°21.812 3°9.131 246.1 3.6 239 11.6
2009-02-26 09:51:59 51°21.78 3°9.051 245.5 3.4 239 11.1
2009-02-26 09:52:59 51°21.756 3°8.978 257.8 2.7 244 10.8
2009-02-26 09:53:59 51°21.74 3°8.908 263.2 3 251 10.8
2009-02-26 09:54:59 51°21.718 3°8.826 251.9 3.5 244 10.6
2009-02-26 09:55:59 51°21.688 3°8.741 247 3.7 240 10.2
2009-02-26 09:56:59 51°21.661 3°8.658 252.8 3.2 242 10.2
2009-02-26 09:57:59 51°21.638 3°8.58 255.8 3.3 245 10.2
2009-02-26 09:58:59 51°21.615 3°8.501 253.9 3.3 244 10
2009-02-26 09:59:59 51°21.591 3°8.424 251.7 3.3 242 10
2009-02-26 10:00:59 51°21.566 3°8.347 253.5 3.3 244 9.9
2009-02-26 10:01:59 51°21.542 3°8.257 255.8 4 248 9.8
2009-02-26 10:02:59 51°21.514 3°8.155 253.6 4.3 243 9.8
2009-02-26 10:03:59 51°21.484 3°8.052 254.8 4.3 246 9.8
2009-02-26 10:04:59 51°21.457 3°7.947 255.8 4.3 246 9.5
2009-02-26 10:05:59 51°21.421 3°7.851 240.4 4.3 233 9.3
2009-02-26 10:06:59 51°21.378 3°7.763 236.5 4.2 229 9.2
2009-02-26 10:07:59 51°21.334 3°7.674 237.8 4.3 232 9.3
2009-02-26 10:08:59 51°21.291 3°7.584 239.6 4.3 235 9
2009-02-26 10:09:59 51°21.253 3°7.488 246.8 4.2 241 8.8
2009-02-26 10:10:59 51°21.217 3°7.389 247.6 4.4 239 8.8
2009-02-26 10:11:59 51°21.179 3°7.293 244.1 4.2 239 8.5
2009-02-26 10:12:59 51°21.145 3°7.194 252.1 4.2 245 8.3
2009-02-26 10:13:59 51°21.12 3°7.09 260.4 4.2 251 8.4
2009-02-26 10:14:59 51°21.097 3°6.983 261.4 4.2 252 8.2
2009-02-26 10:15:59 51°21.074 3°6.878 261 4.2 252 8.3
2009-02-26 10:16:59 51°21.051 3°6.771 259.2 4.2 248 8.3
2009-02-26 10:17:59 51°21.025 3°6.666 259.5 4.2 252 8.2
2009-02-26 10:18:59 51°21.002 3°6.56 259.8 4.3 250 8.4
2009-02-26 10:19:59 51°20.978 3°6.453 259.8 4.1 247 8.2
2009-02-26 10:20:59 51°20.957 3°6.348 262.3 4 259 8.4
2009-02-26 10:21:59 51°20.97 3°6.26 316.9 3 310 8.6
2009-02-26 10:22:59 51°21.008 3°6.248 24 2.2 32 8.6
2009-02-26 10:23:59 51°21.016 3°6.303 89.2 2.5 114 8.7
2009-02-26 10:24:59 51°20.981 3°6.343 143.5 2.4 162 8.5
2009-02-26 10:25:59 51°20.946 3°6.355 156.5 1.9 176 8.3
2009-02-26 10:26:59 51°20.907 3°6.352 182 3.4 194 8.1
2009-02-26 10:27:59 51°20.847 3°6.25 248.2 6.9 248 8.1
2009-02-26 10:28:59 51°20.794 3°6.068 243.2 8.4 242 8
2009-02-26 10:29:59 51°20.741 3°5.849 257.7 8.2 254 8
2009-02-26 10:30:59 51°20.708 3°5.697 250.5 4.8 242 8
2009-02-26 10:31:59 51°20.664 3°5.613 229.4 3.7 223 8
2009-02-26 10:32:59 51°20.617 3°5.547 224.5 4.4 221 8
2009-02-26 10:33:59 51°20.545 3°5.448 223.6 6.8 220 8
2009-02-26 10:34:59 51°20.45 3°5.313 222.7 8.3 222 7.7
2009-02-26 10:35:59 51°20.342 3°5.152 223.4 9.3 223 7.9
2009-02-26 10:36:59 51°20.225 3°4.976 223.9 10 223 7.8
2009-02-26 10:37:59 51°20.097 3°4.773 225 11.7 223 8
2009-02-26 10:38:59 51°19.948 3°4.548 223.9 12.5 224 7.8
2009-02-26 10:39:59 51°19.798 3°4.321 223.3 12.4 223 7.9
2009-02-26 10:40:59 51°19.648 3°4.096 223.4 12.4 224 8.1
2009-02-26 10:41:59 51°19.505 3°3.863 229.5 12.2 233 8.1
2009-02-26 10:42:59 51°19.383 3°3.603 234 12.2 235 8.1
2009-02-26 10:43:59 51°19.258 3°3.349 230.3 12.2 228 8.1
2009-02-26 10:44:59 51°19.118 3°3.116 225.7 12.3 224 8.1
2009-02-26 10:45:59 51°18.975 3°2.885 225.1 12.3 226 8
2009-02-26 10:46:59 51°18.827 3°2.661 223.2 12.3 222 8.1
2009-02-26 10:47:59 51°18.68 3°2.432 226.2 12.3 225 7.9
2009-02-26 10:48:59 51°18.54 3°2.19 228.7 12.4 228 8.3
2009-02-26 10:49:59 51°18.401 3°1.944 228.1 12.5 231 8.4
2009-02-26 10:50:59 51°18.271 3°1.689 232.6 12.3 231 8.8
2009-02-26 10:51:59 51°18.145 3°1.429 234.4 12.3 233 8.9
2009-02-26 10:52:59 51°18.024 3°1.163 235.4 12.3 235 8.9
2009-02-26 10:53:59 51°17.904 3°0.897 235.7 12.3 234 9.4
2009-02-26 10:54:59 51°17.782 3°0.632 235.1 12.3 233 9.4
2009-02-26 10:55:59 51°17.664 3°0.366 237.3 12.3 237 9.7
2009-02-26 10:56:59 51°17.545 3°0.102 235.7 12.3 236 9.8
2009-02-26 10:57:59 51°17.428 2°59.836 237.2 12.3 235 9.9
2009-02-26 10:58:59 51°17.311 2°59.569 235.9 12.3 236 9.9
2009-02-26 10:59:59 51°17.191 2°59.302 234.8 12.4 234 10
2009-02-26 11:00:59 51°17.068 2°59.039 233.9 12.3 232 10.1
2009-02-26 11:01:59 51°16.949 2°58.771 236.6 12.4 236 10.2
2009-02-26 11:02:59 51°16.83 2°58.503 234.5 12.4 233 10.1
2009-02-26 11:03:59 51°16.71 2°58.239 234.8 12.2 234 10.1
2009-02-26 11:04:59 51°16.593 2°57.972 235.9 12.3 234 10
2009-02-26 11:05:59 51°16.473 2°57.709 234.6 12.3 234 10
2009-02-26 11:06:59 51°16.355 2°57.443 235.4 12.3 236 9.8
2009-02-26 11:07:59 51°16.237 2°57.18 233.8 12.2 235 9.7
2009-02-26 11:08:59 51°16.118 2°56.92 235 12.1 232 9.5
2009-02-26 11:09:59 51°16.001 2°56.66 234.9 12 234 9.4
2009-02-26 11:10:59 51°15.885 2°56.401 234.9 12 236 9.3
2009-02-26 11:11:59 51°15.77 2°56.14 234.9 12 235 9.2
2009-02-26 11:12:59 51°15.656 2°55.882 234.9 11.9 234 9.2
2009-02-26 11:13:59 51°15.542 2°55.627 235.4 11.8 235 9.3
2009-02-26 11:14:59 51°15.429 2°55.377 235.1 11.5 235 9.2
2009-02-26 11:15:59 51°15.297 2°55.149 226.6 11.7 225 9.2
2009-02-26 11:16:59 51°15.157 2°54.931 223.2 11.8 225 9.4
2009-02-26 11:17:59 51°15.012 2°54.722 222.8 11.8 224 10.1
2009-02-26 11:18:59 51°14.871 2°54.504 225.5 11.8 226 11.3
2009-02-26 11:19:59 51°14.725 2°54.296 219.6 11.7 218 11.5
2009-02-26 11:20:59 51°14.572 2°54.107 216.8 11.7 217 12.6
2009-02-26 11:21:59 51°14.419 2°53.916 217.4 11.6 218 11.3
2009-02-26 11:22:59 51°14.273 2°53.718 222.6 11.5 225 11.2
2009-02-26 11:23:59 51°14.146 2°53.49 229.4 11.5 230 11.2
2009-02-26 11:24:59 51°14.024 2°53.254 229.8 11.5 230 11.4
2009-02-26 11:25:59 51°13.903 2°53.017 231 11.5 232 11.6
2009-02-26 11:26:59 51°13.779 2°52.784 228.6 11 228 11.6
2009-02-26 11:27:59 51°13.671 2°52.588 228.9 9.3 229 11.8
2009-02-26 11:28:59 51°13.574 2°52.401 233.3 9 236 11.8
2009-02-26 11:29:59 51°13.508 2°52.188 245.9 9 246 11.9
2009-02-26 11:30:59 51°13.482 2°51.956 270.5 9 274 12.1
2009-02-26 11:31:59 51°13.493 2°51.718 272.3 8.8 268 12.6
2009-02-26 11:32:59 51°13.456 2°51.497 245.5 8.7 244 12.9
2009-02-26 11:33:59 51°13.376 2°51.325 230.2 6.1 226 13
2009-02-26 11:34:59 51°13.313 2°51.284 197.7 3.4 183 12.9
2009-02-26 11:35:59 51°13.261 2°51.273 207.6 3.3 201 12.8
2009-02-26 11:36:59 51°13.204 2°51.225 218.7 3.9 214 12.5
2009-02-26 11:37:59 51°13.162 2°51.176 223.6 2.4 215 12.5
2009-02-26 11:38:59 51°13.135 2°51.148 230 1.7 217 12.7
2009-02-26 11:39:59 51°13.113 2°51.112 235.2 2.3 231 12.6
2009-02-26 11:40:59 51°13.088 2°51.062 234.5 2.5 229 12.6
2009-02-26 11:41:59 51°13.056 2°51.016 226.5 2.7 218 12.6
2009-02-26 11:42:59 51°13.021 2°50.97 226.9 2.7 220 12.6
2009-02-26 11:43:59 51°12.987 2°50.923 227.4 2.8 223 12.5
2009-02-26 11:44:59 51°12.951 2°50.878 228 2.8 222 12.5
2009-02-26 11:45:59 51°12.914 2°50.825 227 3.2 222 12.4
2009-02-26 11:46:59 51°12.875 2°50.769 226.9 3.2 218 12.3
2009-02-26 11:47:59 51°12.839 2°50.719 229.4 2.6 222 12.2
2009-02-26 11:48:59 51°12.815 2°50.667 241.8 2.5 248 12.4
2009-02-26 11:49:59 51°12.797 2°50.607 242.5 2.5 244 12.3
2009-02-26 11:50:59 51°12.777 2°50.545 242.3 2.7 244 12.4
2009-02-26 11:51:59 51°12.755 2°50.48 241.3 2.8 243 12.4
2009-02-26 11:52:59 51°12.733 2°50.415 241.8 2.8 246 12.5
2009-02-26 11:53:59 51°12.712 2°50.348 241.6 2.8 243 12.4
2009-02-26 11:54:59 51°12.69 2°50.284 241 2.7 241 12.6
2009-02-26 11:55:59 51°12.668 2°50.22 241.3 2.6 243 12.3
2009-02-26 11:56:59 51°12.647 2°50.158 241.2 2.7 241 12.6
2009-02-26 11:57:59 51°12.624 2°50.096 241 2.7 242 12.6
2009-02-26 11:58:59 51°12.602 2°50.035 240.5 2.6 237 12.5
2009-02-26 11:59:59 51°12.581 2°49.979 242.7 2.4 243 12.6
2009-02-26 12:00:59 51°12.561 2°49.92 241.4 2.5 236 12.6
2009-02-26 12:01:59 51°12.54 2°49.863 242 2.5 237 12.7
2009-02-26 12:02:59 51°12.519 2°49.811 241.6 2.3 239 12.7
2009-02-26 12:03:59 51°12.5 2°49.757 241.1 2.3 239 12.7
2009-02-26 12:04:59 51°12.481 2°49.703 241.6 2.4 237 12.7
2009-02-26 12:05:59 51°12.462 2°49.649 241.3 2.3 244 12.8
2009-02-26 12:06:59 51°12.453 2°49.599 256.3 1.4 272 12.8
2009-02-26 12:07:59 51°12.462 2°49.568 265.3 1.2 305 12.9
2009-02-26 12:08:59 51°12.474 2°49.543 260.9 1 307 13.1
2009-02-26 12:09:59 51°12.475 2°49.503 251.2 3.6 255 13.3
2009-02-26 12:10:59 51°12.435 2°49.36 243.3 7.2 244 13.3
2009-02-26 12:11:59 51°12.376 2°49.17 243.4 9.1 246 13.3
2009-02-26 12:12:59 51°12.305 2°48.94 244 9.8 243 13.4
2009-02-26 12:13:59 51°12.234 2°48.707 242.7 9.8 242 13.6
2009-02-26 12:14:59 51°12.161 2°48.475 245.4 9.8 243 13.6
2009-02-26 12:15:59 51°12.09 2°48.239 244 9.9 245 13.8
2009-02-26 12:16:59 51°12.021 2°48 244.8 9.9 245 13.8
2009-02-26 12:17:59 51°11.952 2°47.761 245.4 9.9 246 13.8
2009-02-26 12:18:59 51°11.877 2°47.527 243.2 9.9 242 13.8
2009-02-26 12:19:59 51°11.807 2°47.29 245.5 9.9 246 13.9
2009-02-26 12:20:59 51°11.741 2°47.048 250.2 10 253 13.9
2009-02-26 12:21:59 51°11.713 2°46.789 259.7 9.8 262 14.4
2009-02-26 12:22:59 51°11.687 2°46.532 257 9.9 259 15.1
2009-02-26 12:23:59 51°11.654 2°46.275 257 9.9 258 15.4
2009-02-26 12:24:59 51°11.622 2°46.015 257 10 258 15.7
2009-02-26 12:25:59 51°11.591 2°45.755 258.5 10 261 15.9
2009-02-26 12:26:59 51°11.561 2°45.497 258.3 9.9 260 16.1
2009-02-26 12:27:59 51°11.533 2°45.237 257 9.9 259 16.2
2009-02-26 12:28:59 51°11.502 2°44.979 258.7 9.9 260 16.2
2009-02-26 12:29:59 51°11.47 2°44.723 255.9 9.9 258 16.2
2009-02-26 12:30:59 51°11.424 2°44.471 250.6 10 250 16.2
2009-02-26 12:31:59 51°11.364 2°44.225 247.4 10 247 16.2
2009-02-26 12:32:59 51°11.3 2°43.982 248.3 10 248 16.2
2009-02-26 12:33:59 51°11.242 2°43.731 249.7 10.3 250 16.1
2009-02-26 12:34:59 51°11.181 2°43.477 248 10 247 16.1
2009-02-26 12:35:59 51°11.122 2°43.233 249.7 9.9 250 16.1
2009-02-26 12:36:59 51°11.063 2°42.989 249.7 9.9 249 16.1
2009-02-26 12:37:59 51°11.005 2°42.744 249.6 9.9 250 16
2009-02-26 12:38:59 51°10.946 2°42.5 249 9.8 248 16
2009-02-26 12:39:59 51°10.883 2°42.26 248.9 9.8 248 16.1
2009-02-26 12:40:59 51°10.822 2°42.017 249.4 9.9 248 16
2009-02-26 12:41:59 51°10.764 2°41.772 248.9 10 247 16
2009-02-26 12:42:59 51°10.701 2°41.526 248.6 9.9 249 15.9
2009-02-26 12:43:59 51°10.643 2°41.28 249.2 10 249 15.9
2009-02-26 12:44:59 51°10.586 2°41.033 251.1 9.8 251 15.9
2009-02-26 12:45:59 51°10.531 2°40.789 249.3 9.8 249 16.1
2009-02-26 12:46:59 51°10.47 2°40.55 248.3 9.8 247 16.2
2009-02-26 12:47:59 51°10.412 2°40.309 248.4 9.7 248 16.4
2009-02-26 12:48:59 51°10.354 2°40.067 249.5 9.8 250 16.6
2009-02-26 12:49:59 51°10.299 2°39.824 248.9 9.7 247 16.9
2009-02-26 12:50:59 51°10.24 2°39.581 248.3 9.9 248 17.2
2009-02-26 12:51:59 51°10.18 2°39.338 248.3 9.8 248 17.6
2009-02-26 12:52:59 51°10.124 2°39.092 249.8 9.9 250 18
2009-02-26 12:53:59 51°10.068 2°38.844 250.3 9.9 252 18.2
2009-02-26 12:54:59 51°10.013 2°38.6 249 9.8 247 18.5
2009-02-26 12:55:59 51°9.954 2°38.358 248.2 9.8 249 18.8
2009-02-26 12:56:59 51°9.896 2°38.117 249 9.7 249 19.1
2009-02-26 12:57:59 51°9.84 2°37.875 249.3 9.8 251 19.6
2009-02-26 12:58:59 51°9.786 2°37.629 248.9 9.9 250 19.8
2009-02-26 12:59:59 51°9.731 2°37.384 248.9 9.8 250 19.8
2009-02-26 13:00:59 51°9.674 2°37.138 248.9 9.9 250 19.7
2009-02-26 13:01:59 51°9.617 2°36.891 249 10 252 19.2
2009-02-26 13:02:59 51°9.56 2°36.64 248.9 10.1 250 19.5
2009-02-26 13:03:59 51°9.507 2°36.386 251.4 10.1 251 19.6
2009-02-26 13:04:59 51°9.453 2°36.135 250.1 10.1 250 19.8
2009-02-26 13:05:59 51°9.395 2°35.881 249.3 10.2 253 20.2
2009-02-26 13:06:59 51°9.341 2°35.625 249.3 10.2 251 19.5
2009-02-26 13:07:59 51°9.283 2°35.367 250.5 10.4 251 20.4
2009-02-26 13:08:59 51°9.224 2°35.11 247.5 10.3 248 19.6
2009-02-26 13:09:59 51°9.166 2°34.852 250.3 10.4 255 20.8
2009-02-26 13:10:59 51°9.117 2°34.596 250 9.9 253 20
2009-02-26 13:11:59 51°9.066 2°34.347 248.2 9.8 250 19.5
2009-02-26 13:12:59 51°9.01 2°34.104 248.2 9.7 249 19.6
2009-02-26 13:13:59 51°8.951 2°33.86 249 10 251 19.6
2009-02-26 13:14:59 51°8.893 2°33.609 249 10.2 250 20.8
2009-02-26 13:15:59 51°8.835 2°33.352 251 10.4 252 21.5
2009-02-26 13:16:59 51°8.777 2°33.092 250.3 10.5 252 21.6
2009-02-26 13:17:59 51°8.719 2°32.83 249.4 10.5 249 22.1
2009-02-26 13:18:59 51°8.665 2°32.661 230.1 4.2 215 22.3
2009-02-26 13:19:59 51°8.61 2°32.66 191.1 3.2 161 22.7
2009-02-26 13:20:59 51°8.563 2°32.694 188.2 2.9 153 23.1
2009-02-26 13:21:59 51°8.523 2°32.728 192.6 2.5 153 22.6
2009-02-26 13:22:59 51°8.489 2°32.751 203.3 1.9 161 22
2009-02-26 13:23:59 51°8.46 2°32.763 214.2 1.8 177 21.4
2009-02-26 13:24:59 51°8.434 2°32.742 239.8 2 241 21.4
2009-02-26 13:25:59 51°8.438 2°32.678 275.7 3.1 302 21.8
2009-02-26 13:26:59 51°8.492 2°32.629 322.3 4.5 349 22.5
2009-02-26 13:27:59 51°8.571 2°32.63 344.3 4.7 8 22.9
2009-02-26 13:28:59 51°8.647 2°32.654 352 4.6 15 22.2
2009-02-26 13:29:59 51°8.72 2°32.693 5 4.8 25 22.3
2009-02-26 13:30:59 51°8.786 2°32.766 35.8 4.9 48 22.3
2009-02-26 13:31:59 51°8.827 2°32.877 69.6 4.8 70 22.1
2009-02-26 13:32:59 51°8.839 2°32.996 100 4.4 89 21.9
2009-02-26 13:33:59 51°8.834 2°33.108 116.9 4.1 98 21.9
2009-02-26 13:34:59 51°8.822 2°33.215 121.6 4.1 100 21.9
2009-02-26 13:35:59 51°8.813 2°33.325 112.6 4.3 93 21.7
2009-02-26 13:36:59 51°8.81 2°33.442 108.9 4.4 92 21.1
2009-02-26 13:37:59 51°8.808 2°33.559 109.1 4.5 91 20.7
2009-02-26 13:38:59 51°8.811 2°33.68 99.8 4.6 85 20
2009-02-26 13:39:59 51°8.819 2°33.804 95.8 4.8 84 19.3
2009-02-26 13:40:59 51°8.827 2°33.93 97.9 4.8 85 19
2009-02-26 13:41:59 51°8.835 2°34.056 94 4.9 80 19.5
2009-02-26 13:42:59 51°8.852 2°34.182 86 4.9 78 19.8
2009-02-26 13:43:59 51°8.876 2°34.308 76.3 5 70 19.3
2009-02-26 13:44:59 51°8.904 2°34.432 74.8 5 70 19.7
2009-02-26 13:45:59 51°8.935 2°34.555 69 5.1 64 19.2
2009-02-26 13:46:59 51°8.971 2°34.675 70.4 5 65 19.3
2009-02-26 13:47:59 51°9.004 2°34.795 74.8 4.8 67 20.3
2009-02-26 13:48:59 51°9.034 2°34.913 75 4.8 68 20.3
2009-02-26 13:49:59 51°9.064 2°35.03 74.3 4.7 69 19.8
2009-02-26 13:50:59 51°9.094 2°35.145 75.3 4.6 70 19.6
2009-02-26 13:51:59 51°9.123 2°35.26 74.1 4.6 68 19.7
2009-02-26 13:52:59 51°9.153 2°35.374 73.7 4.7 68 19.6
2009-02-26 13:53:59 51°9.183 2°35.489 74 4.7 68 19.9
2009-02-26 13:54:59 51°9.212 2°35.605 74.9 4.7 69 19.9
2009-02-26 13:55:59 51°9.243 2°35.72 73.4 4.7 67 19.8
2009-02-26 13:56:59 51°9.269 2°35.835 82.5 4.5 74 19.7
2009-02-26 13:57:59 51°9.277 2°35.946 115.3 3.9 93 19.7
2009-02-26 13:58:59 51°9.267 2°36.04 141.5 3.4 104 19.3
2009-02-26 13:59:59 51°9.252 2°36.117 158.7 2.6 109 19.3
2009-02-26 14:00:59 51°9.239 2°36.175 172.8 2.1 106 19.3
2009-02-26 14:01:59 51°9.235 2°36.224 182.3 1.8 91 19.4
2009-02-26 14:02:59 51°9.237 2°36.27 185 1.8 83 19.3
2009-02-26 14:03:59 51°9.243 2°36.318 185.7 1.8 77 19.1
2009-02-26 14:04:59 51°9.242 2°36.369 173.6 2.8 119 18.9
2009-02-26 14:05:59 51°9.229 2°36.479 96.4 5.4 79 18.4
2009-02-26 14:06:59 51°9.297 2°36.574 4.1 6.4 15 18.7
2009-02-26 14:07:59 51°9.445 2°36.602 0.1 11 8 19.2
2009-02-26 14:08:59 51°9.644 2°36.637 355.1 12.7 359 19.8
2009-02-26 14:09:59 51°9.858 2°36.615 350.2 12.8 354 20.8
2009-02-26 14:10:59 51°10.07 2°36.585 350.7 12.8 357 21.1
2009-02-26 14:12:00 51°10.286 2°36.556 349.1 12.7 355 18.8
2009-02-26 14:13:00 51°10.498 2°36.535 355 12.8 359 12.4
2009-02-26 14:14:00 51°10.712 2°36.542 357.9 12.9 2 13.9
2009-02-26 14:15:00 51°10.928 2°36.555 359.4 13 3 15.1
2009-02-26 14:16:00 51°11.142 2°36.572 0.1 12.8 3 15.3
2009-02-26 14:17:00 51°11.352 2°36.627 10.4 12.9 13 15.1
2009-02-26 14:18:00 51°11.562 2°36.705 11 12.9 14 14.6
2009-02-26 14:19:00 51°11.771 2°36.777 10.2 12.8 13 13.9
2009-02-26 14:20:00 51°11.979 2°36.849 10.3 12.8 13 13.3
2009-02-26 14:21:00 51°12.188 2°36.883 359.1 12.7 2 13.2
2009-02-26 14:22:00 51°12.397 2°36.893 359.6 12.6 5 13
2009-02-26 14:23:00 51°12.607 2°36.928 4.3 12.6 7 13.1
2009-02-26 14:24:00 51°12.816 2°36.973 4.4 12.7 6 11.8
2009-02-26 14:25:00 51°13.026 2°37.017 4.8 12.7 7 11.1
2009-02-26 14:26:00 51°13.236 2°37.062 4.5 12.7 7 11.7
2009-02-26 14:27:00 51°13.446 2°37.099 2.1 12.6 3 11.6
2009-02-26 14:28:00 51°13.645 2°37.05 333.7 11.8 336 19.1
2009-02-26 14:29:00 51°13.736 2°36.825 273.5 10.2 276 22.7
2009-02-26 14:30:00 51°13.693 2°36.564 245 10.4 243 22.9
2009-02-26 14:31:00 51°13.605 2°36.324 239.8 10.5 239 22.3
2009-02-26 14:32:00 51°13.511 2°36.087 237.5 10.6 238 20.6
2009-02-26 14:33:00 51°13.419 2°35.848 240.2 10.6 241 20.7
2009-02-26 14:34:00 51°13.343 2°35.595 244.7 10.6 247 20.3
2009-02-26 14:35:00 51°13.27 2°35.339 245.4 10.6 244 20.5
2009-02-26 14:36:00 51°13.192 2°35.089 243.6 10.6 246 20
2009-02-26 14:37:00 51°13.119 2°34.835 244.7 10.6 243 20.4
2009-02-26 14:38:00 51°13.044 2°34.579 244.7 10.6 245 20.6
2009-02-26 14:39:00 51°12.969 2°34.323 243.2 10.6 246 20.2
2009-02-26 14:40:00 51°12.894 2°34.068 242.9 10.6 246 19.4
2009-02-26 14:41:00 51°12.819 2°33.811 244.8 10.7 246 19
2009-02-26 14:42:00 51°12.745 2°33.552 244 10.8 245 18.3
2009-02-26 14:43:00 51°12.666 2°33.295 242.5 10.8 243 17.1
2009-02-26 14:44:00 51°12.59 2°33.037 243.9 10.7 245 17.9
2009-02-26 14:45:00 51°12.513 2°32.781 243.1 10.6 245 18.9
2009-02-26 14:46:00 51°12.444 2°32.524 245.7 10.5 246 19.9
2009-02-26 14:47:00 51°12.369 2°32.269 243.2 10.7 243 20.7
2009-02-26 14:48:00 51°12.293 2°32.01 245.2 10.8 245 22
2009-02-26 14:49:00 51°12.218 2°31.75 245.3 10.8 245 23.4
2009-02-26 14:50:00 51°12.139 2°31.496 244.8 10.7 244 24.2
2009-02-26 14:51:00 51°12.068 2°31.233 247.9 10.9 252 24.2
2009-02-26 14:52:00 51°12.007 2°30.963 249.2 10.8 250 25.2
2009-02-26 14:53:00 51°11.958 2°30.687 259.7 11 265 25.2
2009-02-26 14:54:00 51°11.977 2°30.398 281.8 11.2 288 25.2
2009-02-26 14:55:00 51°12.094 2°30.175 324.7 12.1 336 24.4
2009-02-26 14:56:00 51°12.303 2°30.151 2.2 13.1 11 25.1
2009-02-26 14:57:00 51°12.513 2°30.247 16.7 13.1 23 24.3
2009-02-26 14:58:00 51°12.707 2°30.4 29 13 27 23.7
2009-02-26 14:59:00 51°12.892 2°30.579 34.4 13.1 33 23.1
2009-02-26 15:00:00 51°13.071 2°30.776 35.3 13.1 35 23
2009-02-26 15:01:00 51°13.251 2°30.968 33.6 13 31 21.7
2009-02-26 15:02:00 51°13.433 2°31.153 33.5 13 31 21.3
2009-02-26 15:03:00 51°13.611 2°31.345 35.4 13 35 20.8
2009-02-26 15:04:00 51°13.788 2°31.541 34.6 12.9 36 21.1
2009-02-26 15:05:00 51°13.968 2°31.732 33 13 35 20.5
2009-02-26 15:06:00 51°14.148 2°31.922 34.6 12.9 34 20.1
2009-02-26 15:07:00 51°14.328 2°32.11 33 12.9 34 20.2
2009-02-26 15:08:00 51°14.506 2°32.304 35.3 13 33 19.4
2009-02-26 15:09:00 51°14.685 2°32.498 32.9 13 35 18.3
2009-02-26 15:10:00 51°14.864 2°32.691 34.3 12.9 35 17.3
2009-02-26 15:11:00 51°15.036 2°32.896 39.1 12.9 38 16.6
2009-02-26 15:12:00 51°15.203 2°33.113 40.5 12.9 39 16.3
2009-02-26 15:13:00 51°15.37 2°33.328 39.2 12.9 41 16.1
2009-02-26 15:14:00 51°15.537 2°33.541 39.6 12.8 40 15.9
2009-02-26 15:15:00 51°15.704 2°33.756 39.3 12.9 39 15.9
2009-02-26 15:16:00 51°15.874 2°33.964 37.6 12.9 39 15.8
2009-02-26 15:17:00 51°16.027 2°34.194 56 12.5 60 15.6
2009-02-26 15:18:00 51°16.104 2°34.509 73.4 12.8 72 20.1
2009-02-26 15:19:00 51°16.173 2°34.835 74.2 13 67 26
2009-02-26 15:20:00 51°16.21 2°35.165 96.1 12.5 96 28.1
2009-02-26 15:21:00 51°16.163 2°35.491 109.3 12.7 104 29.2
2009-02-26 15:22:00 51°16.125 2°35.828 100.7 13.2 94 28.9
2009-02-26 15:23:00 51°16.129 2°36.179 85.8 13.2 81 29.2
2009-02-26 15:24:00 51°16.232 2°36.483 50.2 13.2 42 29.5
2009-02-26 15:25:00 51°16.407 2°36.702 37.9 13.5 39 29.1
2009-02-26 15:26:00 51°16.56 2°36.964 50.8 13.6 49 28.5
2009-02-26 15:27:00 51°16.687 2°37.263 58.5 13.7 59 29.3
2009-02-26 15:28:00 51°16.804 2°37.574 61.5 13.8 60 28.5
2009-02-26 15:29:00 51°16.917 2°37.893 63.4 13.7 62 29.2
2009-02-26 15:30:00 51°17.031 2°38.209 63.3 13.7 60 27.8
2009-02-26 15:31:00 51°17.147 2°38.517 62.5 13.6 58 26.2
2009-02-26 15:32:00 51°17.263 2°38.828 64 13.5 62 23.8
2009-02-26 15:33:00 51°17.354 2°39.15 70.3 13.3 64 20.6
2009-02-26 15:34:00 51°17.389 2°39.487 92.8 12.6 90 14.5
2009-02-26 15:35:00 51°17.376 2°39.818 96.9 12.5 95 15.8
2009-02-26 15:36:00 51°17.364 2°40.152 94.2 12.5 94 16
2009-02-26 15:37:00 51°17.364 2°40.488 94.1 12.7 91 21.3
2009-02-26 15:38:00 51°17.361 2°40.828 94 12.8 92 24.3
2009-02-26 15:39:00 51°17.361 2°41.165 93.6 12.9 90 25.6
2009-02-26 15:40:00 51°17.363 2°41.505 93.3 12.8 89 26.1
2009-02-26 15:41:00 51°17.365 2°41.848 94.4 12.9 90 25.8
2009-02-26 15:42:00 51°17.364 2°42.189 95.4 13 91 24.9
2009-02-26 15:43:00 51°17.362 2°42.527 95 12.7 91 20.9
2009-02-26 15:44:00 51°17.363 2°42.866 95.2 12.6 90 10.4
2009-02-26 15:45:00 51°17.343 2°43.194 103.9 12.4 100 12.7
2009-02-26 15:46:00 51°17.259 2°43.482 124.8 12.1 124 17
2009-02-26 15:47:00 51°17.14 2°43.739 130 12 130 16.8
2009-02-26 15:48:00 51°17.02 2°43.995 131.5 12 127 17.1
2009-02-26 15:49:00 51°16.905 2°44.254 130 12 126 17.5
2009-02-26 15:50:00 51°16.795 2°44.52 127.9 12 124 16.1
2009-02-26 15:51:00 51°16.696 2°44.799 122.1 12.1 115 14.5
2009-02-26 15:52:00 51°16.607 2°45.084 121.9 12.1 111 12.4
2009-02-26 15:53:00 51°16.541 2°45.388 110.8 12.3 104 13.5
2009-02-26 15:54:00 51°16.49 2°45.702 111.1 12.2 109 12.3
2009-02-26 15:55:00 51°16.419 2°46.001 117.9 12 113 11.8
2009-02-26 15:56:00 51°16.344 2°46.297 118.3 12.1 112 11.2
2009-02-26 15:57:00 51°16.267 2°46.596 117.3 12.3 113 12
2009-02-26 15:58:00 51°16.197 2°46.908 116 12.6 112 14.9
2009-02-26 15:59:00 51°16.124 2°47.216 116.9 12.4 111 16.6
2009-02-26 16:00:00 51°16.05 2°47.523 115.6 12.4 113 17.8
2009-02-26 16:01:00 51°15.98 2°47.834 114.6 12.5 111 17.2
2009-02-26 16:02:00 51°15.905 2°48.144 114.3 12.6 111 16.2
2009-02-26 16:03:00 51°15.833 2°48.454 114 12.3 109 14.3
2009-02-26 16:04:00 51°15.758 2°48.757 115.7 12.2 113 12.9
2009-02-26 16:05:00 51°15.682 2°49.06 117.1 12.2 109 12.3
2009-02-26 16:06:00 51°15.605 2°49.36 115.4 12.4 113 13.6
2009-02-26 16:07:00 51°15.529 2°49.667 113.2 12.4 109 14.7
2009-02-26 16:08:00 51°15.473 2°49.986 108.8 12.6 106 14.6
2009-02-26 16:09:00 51°15.44 2°50.313 98.1 12.5 97 14.6
2009-02-26 16:10:00 51°15.422 2°50.642 98.8 12.6 95 14.5
2009-02-26 16:11:00 51°15.404 2°50.974 97.7 12.5 92 14.3
2009-02-26 16:12:00 51°15.389 2°51.304 96.5 12.5 95 14.2
2009-02-26 16:13:00 51°15.377 2°51.636 96.6 12.5 95 13.9
2009-02-26 16:14:00 51°15.342 2°51.961 108.2 12.4 104 13.4
2009-02-26 16:15:00 51°15.284 2°52.275 108.5 12.4 105 12.9
2009-02-26 16:16:00 51°15.22 2°52.584 110.5 12.3 109 12.3
2009-02-26 16:17:00 51°15.155 2°52.892 110.5 12 106 12.1
2009-02-26 16:18:00 51°15.093 2°53.197 110 11.9 109 11.6
2009-02-26 16:19:00 51°15.02 2°53.492 114 12 112 11.4
2009-02-26 16:20:00 51°14.942 2°53.78 114.2 11.8 115 11.2
2009-02-26 16:21:00 51°14.853 2°54.062 121.3 11.8 121 10.9
2009-02-26 16:22:00 51°14.742 2°54.318 126.6 11.7 126 11.4
2009-02-26 16:23:00 51°14.621 2°54.568 130.4 12 128 11.4
2009-02-26 16:24:00 51°14.494 2°54.812 131.2 11.9 130 11.9
2009-02-26 16:25:00 51°14.37 2°55.048 128.4 11.2 129 11.6
2009-02-26 16:26:00 51°14.25 2°55.274 135 10.8 136 11.1
2009-02-26 16:27:00 51°14.109 2°55.418 154.1 9.5 153 11.1
2009-02-26 16:28:00 51°13.972 2°55.519 155.2 8.7 154 -999
2009-02-26 16:29:00 51°13.852 2°55.608 155.4 7.3 154 -999
2009-02-26 16:30:00 51°13.762 2°55.706 133.9 6.3 135 -999
2009-02-26 16:31:00 51°13.696 2°55.833 126 6 126 -999
2009-02-26 16:32:00 51°13.662 2°55.946 107.2 3.1 105 -999
2009-02-26 16:33:00 51°13.662 2°55.955 123.4 0.3 314 -999